LKSN weather

Slaný Airport
Slaný, Central Bohemian Region, Czechia

Public forecast

Using degrees Celsius for public forecast. Weather courtesy of forecast.io.

METAR (pilot weather report)

Closest report is Václav Havel Airport Prague, 9.6 nm (17.8 km) SE. Retrieved 2019/07/19 08:30 UTC (0 seconds ago):

LKPR 190830Z 25009KT 220V290 CAVOK 24/10 Q1015 NOSIG

TAF (pilot weather forecast)

Closest forecast is Václav Havel Airport Prague, 9.6 nm (17.8 km) SE. Retrieved 2019/07/19 06:16 UTC (2 hours ago):

TAF LKPR 190500Z 1906/2012 25008KT CAVOK TEMPO 1906/1915 8000 -SHRA BKN035 PROB30 TEMPO 1910/1915 31010G20KT 5000 TSRA SCT020 BKN030CB BECMG 1923/2001 18003KT